sensor_id;sensor_type;location;lat;lon;timestamp;P1;durP1;ratioP1;P2;durP2;ratioP2
10052;SDS011;52418;53.134;8.236;2022-07-22T00:00:07;0.75;;;0.75;;
10052;SDS011;52418;53.134;8.236;2022-07-22T00:02:33;0.73;;;0.73;;
10052;SDS011;52418;53.134;8.236;2022-07-22T00:04:59;0.70;;;0.70;;
10052;SDS011;52418;53.134;8.236;2022-07-22T00:07:24;0.80;;;0.80;;
10052;SDS011;52418;53.134;8.236;2022-07-22T00:09:49;0.70;;;0.70;;
10052;SDS011;52418;53.134;8.236;2022-07-22T00:12:14;0.70;;;0.70;;
10052;SDS011;52418;53.134;8.236;2022-07-22T00:14:39;0.70;;;0.70;;
10052;SDS011;52418;53.134;8.236;2022-07-22T00:17:04;0.80;;;0.80;;
10052;SDS011;52418;53.134;8.236;2022-07-22T00:19:30;0.80;;;0.80;;
10052;SDS011;52418;53.134;8.236;2022-07-22T00:21:55;0.80;;;0.80;;
10052;SDS011;52418;53.134;8.236;2022-07-22T00:24:20;0.80;;;0.80;;
10052;SDS011;52418;53.134;8.236;2022-07-22T00:26:45;0.80;;;0.80;;
10052;SDS011;52418;53.134;8.236;2022-07-22T00:29:10;0.80;;;0.80;;
10052;SDS011;52418;53.134;8.236;2022-07-22T00:31:36;0.80;;;0.80;;
10052;SDS011;52418;53.134;8.236;2022-07-22T00:34:02;0.80;;;0.80;;
10052;SDS011;52418;53.134;8.236;2022-07-22T00:36:28;0.80;;;0.80;;
10052;SDS011;52418;53.134;8.236;2022-07-22T00:38:53;0.73;;;0.73;;
10052;SDS011;52418;53.134;8.236;2022-07-22T00:41:18;0.80;;;0.80;;
10052;SDS011;52418;53.134;8.236;2022-07-22T00:46:15;0.70;;;0.70;;
10052;SDS011;52418;53.134;8.236;2022-07-22T00:48:40;0.80;;;0.80;;
10052;SDS011;52418;53.134;8.236;2022-07-22T00:51:05;0.80;;;0.80;;
10052;SDS011;52418;53.134;8.236;2022-07-22T00:53:30;0.80;;;0.80;;
10052;SDS011;52418;53.134;8.236;2022-07-22T00:55:55;0.80;;;0.80;;
10052;SDS011;52418;53.134;8.236;2022-07-22T00:58:21;0.73;;;0.73;;
10052;SDS011;52418;53.134;8.236;2022-07-22T01:00:46;0.80;;;0.80;;
10052;SDS011;52418;53.134;8.236;2022-07-22T01:03:12;0.80;;;0.80;;
10052;SDS011;52418;53.134;8.236;2022-07-22T01:05:37;0.80;;;0.80;;
10052;SDS011;52418;53.134;8.236;2022-07-22T01:08:04;0.80;;;0.80;;
10052;SDS011;52418;53.134;8.236;2022-07-22T01:10:30;0.80;;;0.80;;
10052;SDS011;52418;53.134;8.236;2022-07-22T01:12:55;0.70;;;0.70;;
10052;SDS011;52418;53.134;8.236;2022-07-22T01:15:20;0.70;;;0.70;;
10052;SDS011;52418;53.134;8.236;2022-07-22T01:17:45;0.73;;;0.73;;
10052;SDS011;52418;53.134;8.236;2022-07-22T01:20:10;0.80;;;0.80;;
10052;SDS011;52418;53.134;8.236;2022-07-22T01:22:36;0.70;;;0.70;;
10052;SDS011;52418;53.134;8.236;2022-07-22T01:25:01;0.70;;;0.70;;
10052;SDS011;52418;53.134;8.236;2022-07-22T01:27:26;0.80;;;0.80;;
10052;SDS011;52418;53.134;8.236;2022-07-22T01:29:53;0.80;;;0.80;;
10052;SDS011;52418;53.134;8.236;2022-07-22T01:32:18;0.90;;;0.90;;
10052;SDS011;52418;53.134;8.236;2022-07-22T01:34:43;0.88;;;0.88;;
10052;SDS011;52418;53.134;8.236;2022-07-22T01:37:08;0.80;;;0.80;;
10052;SDS011;52418;53.134;8.236;2022-07-22T01:39:34;0.80;;;0.80;;
10052;SDS011;52418;53.134;8.236;2022-07-22T01:41:59;0.80;;;0.80;;
10052;SDS011;52418;53.134;8.236;2022-07-22T01:44:24;0.60;;;0.60;;
10052;SDS011;52418;53.134;8.236;2022-07-22T01:46:49;0.70;;;0.70;;
10052;SDS011;52418;53.134;8.236;2022-07-22T01:49:15;0.70;;;0.70;;
10052;SDS011;52418;53.134;8.236;2022-07-22T01:51:41;0.70;;;0.70;;
10052;SDS011;52418;53.134;8.236;2022-07-22T01:54:06;0.70;;;0.70;;
10052;SDS011;52418;53.134;8.236;2022-07-22T01:56:32;0.70;;;0.70;;
10052;SDS011;52418;53.134;8.236;2022-07-22T01:58:57;0.70;;;0.70;;
10052;SDS011;52418;53.134;8.236;2022-07-22T02:01:28;0.70;;;0.70;;
10052;SDS011;52418;53.134;8.236;2022-07-22T02:03:53;0.73;;;0.73;;
10052;SDS011;52418;53.134;8.236;2022-07-22T02:06:18;0.70;;;0.70;;
10052;SDS011;52418;53.134;8.236;2022-07-22T02:08:43;0.80;;;0.80;;
10052;SDS011;52418;53.134;8.236;2022-07-22T02:11:09;0.75;;;0.75;;
10052;SDS011;52418;53.134;8.236;2022-07-22T02:13:34;0.70;;;0.70;;
10052;SDS011;52418;53.134;8.236;2022-07-22T02:15:59;0.80;;;0.80;;
10052;SDS011;52418;53.134;8.236;2022-07-22T02:18:24;0.80;;;0.80;;
10052;SDS011;52418;53.134;8.236;2022-07-22T02:20:50;0.80;;;0.80;;
10052;SDS011;52418;53.134;8.236;2022-07-22T02:23:15;0.80;;;0.80;;
10052;SDS011;52418;53.134;8.236;2022-07-22T02:25:41;0.80;;;0.80;;
10052;SDS011;52418;53.134;8.236;2022-07-22T02:28:07;0.70;;;0.70;;
10052;SDS011;52418;53.134;8.236;2022-07-22T02:30:32;0.70;;;0.70;;
10052;SDS011;52418;53.134;8.236;2022-07-22T02:32:58;0.80;;;0.80;;
10052;SDS011;52418;53.134;8.236;2022-07-22T02:35:23;0.70;;;0.70;;
10052;SDS011;52418;53.134;8.236;2022-07-22T02:37:48;0.80;;;0.80;;
10052;SDS011;52418;53.134;8.236;2022-07-22T02:40:13;0.70;;;0.70;;
10052;SDS011;52418;53.134;8.236;2022-07-22T02:42:39;0.80;;;0.80;;
10052;SDS011;52418;53.134;8.236;2022-07-22T02:45:04;0.70;;;0.70;;
10052;SDS011;52418;53.134;8.236;2022-07-22T02:47:29;0.80;;;0.80;;
10052;SDS011;52418;53.134;8.236;2022-07-22T02:49:55;0.70;;;0.70;;
10052;SDS011;52418;53.134;8.236;2022-07-22T02:52:20;0.70;;;0.70;;
10052;SDS011;52418;53.134;8.236;2022-07-22T02:54:45;0.70;;;0.70;;
10052;SDS011;52418;53.134;8.236;2022-07-22T02:57:10;0.80;;;0.80;;
10052;SDS011;52418;53.134;8.236;2022-07-22T02:59:35;0.80;;;0.80;;
10052;SDS011;52418;53.134;8.236;2022-07-22T03:04:29;0.70;;;0.70;;
10052;SDS011;52418;53.134;8.236;2022-07-22T03:06:54;0.80;;;0.80;;
10052;SDS011;52418;53.134;8.236;2022-07-22T03:09:20;0.80;;;0.80;;
10052;SDS011;52418;53.134;8.236;2022-07-22T03:11:45;0.90;;;0.90;;
10052;SDS011;52418;53.134;8.236;2022-07-22T03:14:10;0.90;;;0.90;;
10052;SDS011;52418;53.134;8.236;2022-07-22T03:16:36;0.80;;;0.80;;
10052;SDS011;52418;53.134;8.236;2022-07-22T03:19:01;0.80;;;0.80;;
10052;SDS011;52418;53.134;8.236;2022-07-22T03:21:26;0.70;;;0.70;;
10052;SDS011;52418;53.134;8.236;2022-07-22T03:23:52;0.80;;;0.80;;
10052;SDS011;52418;53.134;8.236;2022-07-22T03:26:19;0.77;;;0.77;;
10052;SDS011;52418;53.134;8.236;2022-07-22T03:28:44;0.80;;;0.80;;
10052;SDS011;52418;53.134;8.236;2022-07-22T03:31:09;0.80;;;0.80;;
10052;SDS011;52418;53.134;8.236;2022-07-22T03:33:35;0.80;;;0.80;;
10052;SDS011;52418;53.134;8.236;2022-07-22T03:36:00;0.70;;;0.70;;
10052;SDS011;52418;53.134;8.236;2022-07-22T03:38:25;0.70;;;0.70;;
10052;SDS011;52418;53.134;8.236;2022-07-22T03:40:50;0.70;;;0.70;;
10052;SDS011;52418;53.134;8.236;2022-07-22T03:43:15;0.80;;;0.80;;
10052;SDS011;52418;53.134;8.236;2022-07-22T03:45:40;0.80;;;0.80;;
10052;SDS011;52418;53.134;8.236;2022-07-22T03:48:06;0.80;;;0.80;;
10052;SDS011;52418;53.134;8.236;2022-07-22T03:50:31;0.77;;;0.77;;
10052;SDS011;52418;53.134;8.236;2022-07-22T03:52:56;0.80;;;0.80;;
10052;SDS011;52418;53.134;8.236;2022-07-22T03:55:21;0.80;;;0.80;;
10052;SDS011;52418;53.134;8.236;2022-07-22T03:57:47;0.70;;;0.70;;
10052;SDS011;52418;53.134;8.236;2022-07-22T04:00:12;0.70;;;0.70;;
10052;SDS011;52418;53.134;8.236;2022-07-22T04:02:37;0.80;;;0.80;;
10052;SDS011;52418;53.134;8.236;2022-07-22T04:05:02;0.80;;;0.80;;
10052;SDS011;52418;53.134;8.236;2022-07-22T04:07:28;0.70;;;0.70;;
10052;SDS011;52418;53.134;8.236;2022-07-22T04:09:53;0.80;;;0.80;;
10052;SDS011;52418;53.134;8.236;2022-07-22T04:12:29;0.80;;;0.80;;
10052;SDS011;52418;53.134;8.236;2022-07-22T04:14:54;0.75;;;0.75;;
10052;SDS011;52418;53.134;8.236;2022-07-22T04:17:21;0.80;;;0.80;;
10052;SDS011;52418;53.134;8.236;2022-07-22T04:19:47;0.70;;;0.70;;
10052;SDS011;52418;53.134;8.236;2022-07-22T04:22:12;0.80;;;0.80;;
10052;SDS011;52418;53.134;8.236;2022-07-22T04:24:37;0.77;;;0.77;;
10052;SDS011;52418;53.134;8.236;2022-07-22T04:27:02;0.75;;;0.75;;
10052;SDS011;52418;53.134;8.236;2022-07-22T04:29:27;0.80;;;0.80;;
10052;SDS011;52418;53.134;8.236;2022-07-22T04:31:53;0.70;;;0.70;;
10052;SDS011;52418;53.134;8.236;2022-07-22T04:34:18;0.70;;;0.70;;
10052;SDS011;52418;53.134;8.236;2022-07-22T04:36:43;0.70;;;0.70;;
10052;SDS011;52418;53.134;8.236;2022-07-22T04:39:08;0.80;;;0.80;;
10052;SDS011;52418;53.134;8.236;2022-07-22T04:41:33;0.70;;;0.70;;
10052;SDS011;52418;53.134;8.236;2022-07-22T04:43:59;0.77;;;0.77;;
10052;SDS011;52418;53.134;8.236;2022-07-22T04:46:24;0.70;;;0.70;;
10052;SDS011;52418;53.134;8.236;2022-07-22T04:48:49;0.80;;;0.80;;
10052;SDS011;52418;53.134;8.236;2022-07-22T04:51:14;0.70;;;0.70;;
10052;SDS011;52418;53.134;8.236;2022-07-22T04:53:39;0.70;;;0.70;;
10052;SDS011;52418;53.134;8.236;2022-07-22T04:56:05;0.80;;;0.80;;
10052;SDS011;52418;53.134;8.236;2022-07-22T04:58:30;0.90;;;0.90;;
10052;SDS011;52418;53.134;8.236;2022-07-22T05:00:55;0.90;;;0.90;;
10052;SDS011;52418;53.134;8.236;2022-07-22T05:03:20;0.80;;;0.80;;
10052;SDS011;52418;53.134;8.236;2022-07-22T05:05:46;0.90;;;0.90;;
10052;SDS011;52418;53.134;8.236;2022-07-22T05:08:11;0.82;;;0.82;;
10052;SDS011;52418;53.134;8.236;2022-07-22T05:10:36;0.90;;;0.90;;
10052;SDS011;52418;53.134;8.236;2022-07-22T05:13:01;0.80;;;0.80;;
10052;SDS011;52418;53.134;8.236;2022-07-22T05:15:27;0.90;;;0.90;;
10052;SDS011;52418;53.134;8.236;2022-07-22T05:17:52;0.80;;;0.80;;
10052;SDS011;52418;53.134;8.236;2022-07-22T05:20:17;0.80;;;0.80;;
10052;SDS011;52418;53.134;8.236;2022-07-22T05:22:42;0.80;;;0.80;;
10052;SDS011;52418;53.134;8.236;2022-07-22T05:25:08;0.80;;;0.80;;
10052;SDS011;52418;53.134;8.236;2022-07-22T05:27:33;0.90;;;0.90;;
10052;SDS011;52418;53.134;8.236;2022-07-22T05:29:58;0.90;;;0.90;;
10052;SDS011;52418;53.134;8.236;2022-07-22T05:32:23;0.90;;;0.90;;
10052;SDS011;52418;53.134;8.236;2022-07-22T05:34:49;0.90;;;0.90;;
10052;SDS011;52418;53.134;8.236;2022-07-22T05:37:14;0.90;;;0.90;;
10052;SDS011;52418;53.134;8.236;2022-07-22T05:39:41;1.00;;;1.00;;
10052;SDS011;52418;53.134;8.236;2022-07-22T05:42:06;0.90;;;0.90;;
10052;SDS011;52418;53.134;8.236;2022-07-22T05:44:31;0.90;;;0.90;;
10052;SDS011;52418;53.134;8.236;2022-07-22T05:46:56;0.90;;;0.90;;
10052;SDS011;52418;53.134;8.236;2022-07-22T05:49:22;1.00;;;1.00;;
10052;SDS011;52418;53.134;8.236;2022-07-22T05:51:50;0.90;;;0.90;;
10052;SDS011;52418;53.134;8.236;2022-07-22T05:54:15;0.90;;;0.90;;
10052;SDS011;52418;53.134;8.236;2022-07-22T05:56:40;0.90;;;0.90;;
10052;SDS011;52418;53.134;8.236;2022-07-22T05:59:05;0.95;;;0.95;;
10052;SDS011;52418;53.134;8.236;2022-07-22T06:01:31;1.00;;;1.00;;
10052;SDS011;52418;53.134;8.236;2022-07-22T06:03:56;1.00;;;1.00;;
10052;SDS011;52418;53.134;8.236;2022-07-22T06:06:21;1.00;;;1.00;;
10052;SDS011;52418;53.134;8.236;2022-07-22T06:08:46;0.90;;;0.90;;
10052;SDS011;52418;53.134;8.236;2022-07-22T06:11:14;1.00;;;1.00;;
10052;SDS011;52418;53.134;8.236;2022-07-22T06:13:39;0.90;;;0.90;;
10052;SDS011;52418;53.134;8.236;2022-07-22T06:16:04;1.02;;;1.02;;
10052;SDS011;52418;53.134;8.236;2022-07-22T06:18:30;0.90;;;0.90;;
10052;SDS011;52418;53.134;8.236;2022-07-22T06:20:55;0.90;;;0.90;;
10052;SDS011;52418;53.134;8.236;2022-07-22T06:23:22;0.90;;;0.90;;
10052;SDS011;52418;53.134;8.236;2022-07-22T06:25:47;1.00;;;1.00;;
10052;SDS011;52418;53.134;8.236;2022-07-22T06:28:19;0.95;;;0.95;;
10052;SDS011;52418;53.134;8.236;2022-07-22T06:30:45;1.00;;;1.00;;
10052;SDS011;52418;53.134;8.236;2022-07-22T06:33:10;1.00;;;1.00;;
10052;SDS011;52418;53.134;8.236;2022-07-22T06:35:38;1.00;;;1.00;;
10052;SDS011;52418;53.134;8.236;2022-07-22T06:38:04;1.00;;;1.00;;
10052;SDS011;52418;53.134;8.236;2022-07-22T06:40:30;1.00;;;1.00;;
10052;SDS011;52418;53.134;8.236;2022-07-22T06:42:57;1.00;;;1.00;;
10052;SDS011;52418;53.134;8.236;2022-07-22T06:45:22;1.00;;;1.00;;
10052;SDS011;52418;53.134;8.236;2022-07-22T06:47:47;1.10;;;1.10;;
10052;SDS011;52418;53.134;8.236;2022-07-22T06:50:15;1.10;;;1.10;;
10052;SDS011;52418;53.134;8.236;2022-07-22T06:52:45;1.10;;;1.10;;
10052;SDS011;52418;53.134;8.236;2022-07-22T06:55:11;1.10;;;1.10;;
10052;SDS011;52418;53.134;8.236;2022-07-22T06:57:36;1.10;;;1.10;;
10052;SDS011;52418;53.134;8.236;2022-07-22T07:00:05;1.10;;;1.10;;
10052;SDS011;52418;53.134;8.236;2022-07-22T07:02:32;1.10;;;1.10;;
10052;SDS011;52418;53.134;8.236;2022-07-22T07:04:57;1.00;;;1.00;;
10052;SDS011;52418;53.134;8.236;2022-07-22T07:07:22;1.10;;;1.10;;
10052;SDS011;52418;53.134;8.236;2022-07-22T07:09:47;1.10;;;1.10;;
10052;SDS011;52418;53.134;8.236;2022-07-22T07:12:13;1.00;;;1.00;;
10052;SDS011;52418;53.134;8.236;2022-07-22T07:14:38;1.10;;;1.10;;
10052;SDS011;52418;53.134;8.236;2022-07-22T07:17:03;1.10;;;1.10;;
10052;SDS011;52418;53.134;8.236;2022-07-22T07:19:28;1.10;;;1.10;;
10052;SDS011;52418;53.134;8.236;2022-07-22T07:21:54;1.10;;;1.10;;
10052;SDS011;52418;53.134;8.236;2022-07-22T07:24:19;1.10;;;1.10;;
10052;SDS011;52418;53.134;8.236;2022-07-22T07:26:44;1.00;;;1.00;;
10052;SDS011;52418;53.134;8.236;2022-07-22T07:29:09;1.10;;;1.10;;
10052;SDS011;52418;53.134;8.236;2022-07-22T07:31:34;1.10;;;1.10;;
10052;SDS011;52418;53.134;8.236;2022-07-22T07:34:00;1.00;;;1.00;;
10052;SDS011;52418;53.134;8.236;2022-07-22T07:36:25;1.20;;;1.20;;
10052;SDS011;52418;53.134;8.236;2022-07-22T07:38:50;1.15;;;1.15;;
10052;SDS011;52418;53.134;8.236;2022-07-22T07:41:16;1.10;;;1.10;;
10052;SDS011;52418;53.134;8.236;2022-07-22T07:43:41;1.00;;;1.00;;
10052;SDS011;52418;53.134;8.236;2022-07-22T07:46:06;1.20;;;1.20;;
10052;SDS011;52418;53.134;8.236;2022-07-22T07:48:32;1.20;;;1.20;;
10052;SDS011;52418;53.134;8.236;2022-07-22T07:50:57;1.10;;;1.10;;
10052;SDS011;52418;53.134;8.236;2022-07-22T07:53:22;1.10;;;1.10;;
10052;SDS011;52418;53.134;8.236;2022-07-22T07:55:48;1.13;;;1.13;;
10052;SDS011;52418;53.134;8.236;2022-07-22T07:58:13;1.10;;;1.10;;
10052;SDS011;52418;53.134;8.236;2022-07-22T08:00:39;1.10;;;1.10;;
10052;SDS011;52418;53.134;8.236;2022-07-22T08:03:06;1.25;;;1.25;;
10052;SDS011;52418;53.134;8.236;2022-07-22T08:05:31;1.10;;;1.10;;
10052;SDS011;52418;53.134;8.236;2022-07-22T08:07:56;1.00;;;1.00;;
10052;SDS011;52418;53.134;8.236;2022-07-22T08:10:22;1.10;;;1.10;;
10052;SDS011;52418;53.134;8.236;2022-07-22T08:12:47;1.08;;;1.08;;
10052;SDS011;52418;53.134;8.236;2022-07-22T08:15:13;1.10;;;1.10;;
10052;SDS011;52418;53.134;8.236;2022-07-22T08:17:38;1.10;;;1.10;;
10052;SDS011;52418;53.134;8.236;2022-07-22T08:20:03;1.08;;;1.08;;
10052;SDS011;52418;53.134;8.236;2022-07-22T08:22:29;1.10;;;1.10;;
10052;SDS011;52418;53.134;8.236;2022-07-22T08:24:54;1.20;;;1.20;;
10052;SDS011;52418;53.134;8.236;2022-07-22T08:27:19;1.10;;;1.10;;
10052;SDS011;52418;53.134;8.236;2022-07-22T08:29:45;1.10;;;1.10;;
10052;SDS011;52418;53.134;8.236;2022-07-22T08:32:10;1.20;;;1.20;;
10052;SDS011;52418;53.134;8.236;2022-07-22T08:34:35;1.20;;;1.20;;
10052;SDS011;52418;53.134;8.236;2022-07-22T08:37:00;1.20;;;1.20;;
10052;SDS011;52418;53.134;8.236;2022-07-22T08:39:25;1.10;;;1.10;;
10052;SDS011;52418;53.134;8.236;2022-07-22T08:41:51;1.10;;;1.10;;
10052;SDS011;52418;53.134;8.236;2022-07-22T08:44:16;1.20;;;1.20;;
10052;SDS011;52418;53.134;8.236;2022-07-22T08:46:43;1.20;;;1.20;;
10052;SDS011;52418;53.134;8.236;2022-07-22T08:49:08;1.10;;;1.10;;
10052;SDS011;52418;53.134;8.236;2022-07-22T08:51:33;1.20;;;1.20;;
10052;SDS011;52418;53.134;8.236;2022-07-22T08:53:59;1.10;;;1.10;;
10052;SDS011;52418;53.134;8.236;2022-07-22T08:56:24;1.10;;;1.10;;
10052;SDS011;52418;53.134;8.236;2022-07-22T08:58:49;1.10;;;1.10;;
10052;SDS011;52418;53.134;8.236;2022-07-22T09:01:15;1.10;;;1.10;;
10052;SDS011;52418;53.134;8.236;2022-07-22T09:03:45;1.10;;;1.10;;
10052;SDS011;52418;53.134;8.236;2022-07-22T09:06:11;1.10;;;1.10;;
10052;SDS011;52418;53.134;8.236;2022-07-22T09:08:57;0.90;;;0.90;;
10052;SDS011;52418;53.134;8.236;2022-07-22T09:11:23;1.10;;;1.10;;
10052;SDS011;52418;53.134;8.236;2022-07-22T09:13:49;1.00;;;1.00;;
10052;SDS011;52418;53.134;8.236;2022-07-22T09:16:14;1.10;;;1.10;;
10052;SDS011;52418;53.134;8.236;2022-07-22T09:18:50;1.00;;;1.00;;
10052;SDS011;52418;53.134;8.236;2022-07-22T09:21:16;1.00;;;1.00;;
10052;SDS011;52418;53.134;8.236;2022-07-22T09:23:41;1.10;;;1.10;;
10052;SDS011;52418;53.134;8.236;2022-07-22T09:26:07;1.08;;;1.08;;
10052;SDS011;52418;53.134;8.236;2022-07-22T09:28:32;1.10;;;1.10;;
10052;SDS011;52418;53.134;8.236;2022-07-22T09:30:57;1.00;;;1.00;;
10052;SDS011;52418;53.134;8.236;2022-07-22T09:33:23;0.95;;;0.95;;
10052;SDS011;52418;53.134;8.236;2022-07-22T09:35:48;1.00;;;1.00;;
10052;SDS011;52418;53.134;8.236;2022-07-22T09:38:14;1.00;;;1.00;;
10052;SDS011;52418;53.134;8.236;2022-07-22T09:40:43;1.00;;;1.00;;
10052;SDS011;52418;53.134;8.236;2022-07-22T09:43:13;1.00;;;1.00;;
10052;SDS011;52418;53.134;8.236;2022-07-22T09:45:47;1.10;;;1.10;;
10052;SDS011;52418;53.134;8.236;2022-07-22T09:48:13;1.13;;;1.13;;
10052;SDS011;52418;53.134;8.236;2022-07-22T09:50:38;1.10;;;1.10;;
10052;SDS011;52418;53.134;8.236;2022-07-22T09:53:04;1.00;;;1.00;;
10052;SDS011;52418;53.134;8.236;2022-07-22T09:55:29;1.10;;;1.10;;
10052;SDS011;52418;53.134;8.236;2022-07-22T09:57:56;1.00;;;1.00;;
10052;SDS011;52418;53.134;8.236;2022-07-22T10:00:23;1.20;;;1.20;;
10052;SDS011;52418;53.134;8.236;2022-07-22T10:02:53;1.00;;;1.00;;
10052;SDS011;52418;53.134;8.236;2022-07-22T10:05:20;1.10;;;1.10;;
10052;SDS011;52418;53.134;8.236;2022-07-22T10:07:47;1.20;;;1.20;;
10052;SDS011;52418;53.134;8.236;2022-07-22T10:10:17;1.10;;;1.10;;
10052;SDS011;52418;53.134;8.236;2022-07-22T10:12:43;1.13;;;1.13;;
10052;SDS011;52418;53.134;8.236;2022-07-22T10:15:09;1.10;;;1.10;;
10052;SDS011;52418;53.134;8.236;2022-07-22T10:17:35;1.10;;;1.10;;
10052;SDS011;52418;53.134;8.236;2022-07-22T10:20:02;1.10;;;1.10;;
10052;SDS011;52418;53.134;8.236;2022-07-22T10:25:12;1.42;;;1.35;;
10052;SDS011;52418;53.134;8.236;2022-07-22T10:27:44;1.20;;;1.20;;
10052;SDS011;52418;53.134;8.236;2022-07-22T10:30:10;1.23;;;1.23;;
10052;SDS011;52418;53.134;8.236;2022-07-22T10:32:37;1.20;;;1.20;;
10052;SDS011;52418;53.134;8.236;2022-07-22T10:45:20;1.20;;;1.20;;
10052;SDS011;52418;53.134;8.236;2022-07-22T10:47:55;1.20;;;1.20;;
10052;SDS011;52418;53.134;8.236;2022-07-22T10:53:24;1.10;;;1.10;;
10052;SDS011;52418;53.134;8.236;2022-07-22T10:56:02;1.17;;;1.17;;
10052;SDS011;52418;53.134;8.236;2022-07-22T11:01:01;1.20;;;1.20;;
10052;SDS011;52418;53.134;8.236;2022-07-22T11:03:29;1.30;;;1.30;;
10052;SDS011;52418;53.134;8.236;2022-07-22T11:08:42;1.30;;;1.30;;
10052;SDS011;52418;53.134;8.236;2022-07-22T11:11:09;1.30;;;1.30;;
10052;SDS011;52418;53.134;8.236;2022-07-22T11:18:58;1.30;;;1.30;;
10052;SDS011;52418;53.134;8.236;2022-07-22T11:21:28;1.30;;;1.30;;
10052;SDS011;52418;53.134;8.236;2022-07-22T11:23:54;1.30;;;1.30;;
10052;SDS011;52418;53.134;8.236;2022-07-22T11:26:22;1.15;;;1.15;;
10052;SDS011;52418;53.134;8.236;2022-07-22T11:28:49;1.20;;;1.20;;
10052;SDS011;52418;53.134;8.236;2022-07-22T11:31:15;1.30;;;1.30;;
10052;SDS011;52418;53.134;8.236;2022-07-22T11:33:41;1.20;;;1.20;;
10052;SDS011;52418;53.134;8.236;2022-07-22T11:36:07;1.10;;;1.10;;
10052;SDS011;52418;53.134;8.236;2022-07-22T11:38:45;1.20;;;1.20;;
10052;SDS011;52418;53.134;8.236;2022-07-22T11:41:10;1.15;;;1.15;;
10052;SDS011;52418;53.134;8.236;2022-07-22T11:43:39;1.20;;;1.20;;
10052;SDS011;52418;53.134;8.236;2022-07-22T11:46:05;1.30;;;1.30;;
10052;SDS011;52418;53.134;8.236;2022-07-22T11:48:30;1.30;;;1.30;;
10052;SDS011;52418;53.134;8.236;2022-07-22T11:51:02;1.10;;;1.10;;
10052;SDS011;52418;53.134;8.236;2022-07-22T11:53:27;1.23;;;1.23;;
10052;SDS011;52418;53.134;8.236;2022-07-22T11:56:02;1.30;;;1.30;;
10052;SDS011;52418;53.134;8.236;2022-07-22T12:01:12;1.20;;;1.20;;
10052;SDS011;52418;53.134;8.236;2022-07-22T12:03:38;1.30;;;1.30;;
10052;SDS011;52418;53.134;8.236;2022-07-22T12:06:04;1.10;;;1.10;;
10052;SDS011;52418;53.134;8.236;2022-07-22T12:08:31;1.00;;;1.00;;
10052;SDS011;52418;53.134;8.236;2022-07-22T12:10:57;1.00;;;1.00;;
10052;SDS011;52418;53.134;8.236;2022-07-22T12:13:27;1.00;;;1.00;;
10052;SDS011;52418;53.134;8.236;2022-07-22T12:15:52;1.10;;;1.10;;
10052;SDS011;52418;53.134;8.236;2022-07-22T12:18:21;1.10;;;1.10;;
10052;SDS011;52418;53.134;8.236;2022-07-22T12:20:47;1.10;;;1.10;;
10052;SDS011;52418;53.134;8.236;2022-07-22T12:23:13;1.10;;;1.10;;
10052;SDS011;52418;53.134;8.236;2022-07-22T12:25:58;1.10;;;1.10;;
10052;SDS011;52418;53.134;8.236;2022-07-22T12:28:24;1.10;;;1.10;;
10052;SDS011;52418;53.134;8.236;2022-07-22T12:30:50;1.20;;;1.20;;
10052;SDS011;52418;53.134;8.236;2022-07-22T12:33:16;1.20;;;1.20;;
10052;SDS011;52418;53.134;8.236;2022-07-22T12:35:42;1.10;;;1.10;;
10052;SDS011;52418;53.134;8.236;2022-07-22T12:38:08;1.10;;;1.10;;
10052;SDS011;52418;53.134;8.236;2022-07-22T12:40:34;1.20;;;1.20;;
10052;SDS011;52418;53.134;8.236;2022-07-22T12:43:06;1.10;;;1.10;;
10052;SDS011;52418;53.134;8.236;2022-07-22T12:45:33;1.17;;;1.17;;
10052;SDS011;52418;53.134;8.236;2022-07-22T12:55:21;1.15;;;1.15;;
10052;SDS011;52418;53.134;8.236;2022-07-22T12:57:47;1.17;;;1.17;;
10052;SDS011;52418;53.134;8.236;2022-07-22T13:00:16;1.23;;;1.23;;
10052;SDS011;52418;53.134;8.236;2022-07-22T13:02:42;1.20;;;1.20;;
10052;SDS011;52418;53.134;8.236;2022-07-22T13:05:07;1.10;;;1.10;;
10052;SDS011;52418;53.134;8.236;2022-07-22T13:07:32;1.20;;;1.20;;
10052;SDS011;52418;53.134;8.236;2022-07-22T13:09:57;1.10;;;1.10;;
10052;SDS011;52418;53.134;8.236;2022-07-22T13:12:22;1.10;;;1.10;;
10052;SDS011;52418;53.134;8.236;2022-07-22T13:14:48;1.10;;;1.10;;
10052;SDS011;52418;53.134;8.236;2022-07-22T13:17:13;1.10;;;1.10;;
10052;SDS011;52418;53.134;8.236;2022-07-22T13:19:38;1.00;;;1.00;;
10052;SDS011;52418;53.134;8.236;2022-07-22T13:22:04;1.20;;;1.20;;
10052;SDS011;52418;53.134;8.236;2022-07-22T13:24:29;1.20;;;1.20;;
10052;SDS011;52418;53.134;8.236;2022-07-22T13:26:57;1.20;;;1.20;;
10052;SDS011;52418;53.134;8.236;2022-07-22T13:29:22;1.10;;;1.10;;
10052;SDS011;52418;53.134;8.236;2022-07-22T13:31:47;1.10;;;1.10;;
10052;SDS011;52418;53.134;8.236;2022-07-22T13:34:14;1.15;;;1.15;;
10052;SDS011;52418;53.134;8.236;2022-07-22T13:36:39;1.20;;;1.20;;
10052;SDS011;52418;53.134;8.236;2022-07-22T13:39:04;1.00;;;1.00;;
10052;SDS011;52418;53.134;8.236;2022-07-22T13:41:30;1.10;;;1.10;;
10052;SDS011;52418;53.134;8.236;2022-07-22T13:43:55;1.17;;;1.17;;
10052;SDS011;52418;53.134;8.236;2022-07-22T13:46:21;1.10;;;1.10;;
10052;SDS011;52418;53.134;8.236;2022-07-22T13:48:46;1.10;;;1.10;;
10052;SDS011;52418;53.134;8.236;2022-07-22T13:51:11;1.10;;;1.10;;
10052;SDS011;52418;53.134;8.236;2022-07-22T13:53:37;1.13;;;1.13;;
10052;SDS011;52418;53.134;8.236;2022-07-22T13:56:03;1.10;;;1.10;;
10052;SDS011;52418;53.134;8.236;2022-07-22T13:58:28;1.10;;;1.10;;
10052;SDS011;52418;53.134;8.236;2022-07-22T14:00:53;1.20;;;1.20;;
10052;SDS011;52418;53.134;8.236;2022-07-22T14:03:18;1.00;;;1.00;;
10052;SDS011;52418;53.134;8.236;2022-07-22T14:05:44;1.10;;;1.10;;
10052;SDS011;52418;53.134;8.236;2022-07-22T14:08:09;1.10;;;1.10;;
10052;SDS011;52418;53.134;8.236;2022-07-22T14:10:35;1.10;;;1.10;;
10052;SDS011;52418;53.134;8.236;2022-07-22T14:13:00;1.10;;;1.10;;
10052;SDS011;52418;53.134;8.236;2022-07-22T14:15:25;1.10;;;1.10;;
10052;SDS011;52418;53.134;8.236;2022-07-22T14:17:50;1.10;;;1.10;;
10052;SDS011;52418;53.134;8.236;2022-07-22T14:20:15;1.20;;;1.20;;
10052;SDS011;52418;53.134;8.236;2022-07-22T14:22:41;1.10;;;1.10;;
10052;SDS011;52418;53.134;8.236;2022-07-22T14:25:06;1.20;;;1.20;;
10052;SDS011;52418;53.134;8.236;2022-07-22T14:27:31;1.20;;;1.20;;
10052;SDS011;52418;53.134;8.236;2022-07-22T14:29:56;1.10;;;1.10;;
10052;SDS011;52418;53.134;8.236;2022-07-22T14:32:21;1.10;;;1.10;;
10052;SDS011;52418;53.134;8.236;2022-07-22T14:34:47;1.10;;;1.10;;
10052;SDS011;52418;53.134;8.236;2022-07-22T14:37:12;1.20;;;1.20;;
10052;SDS011;52418;53.134;8.236;2022-07-22T14:39:37;1.20;;;1.20;;
10052;SDS011;52418;53.134;8.236;2022-07-22T14:42:03;1.20;;;1.20;;
10052;SDS011;52418;53.134;8.236;2022-07-22T14:44:28;1.20;;;1.20;;
10052;SDS011;52418;53.134;8.236;2022-07-22T14:46:53;1.13;;;1.13;;
10052;SDS011;52418;53.134;8.236;2022-07-22T14:49:18;1.10;;;1.10;;
10052;SDS011;52418;53.134;8.236;2022-07-22T14:51:44;1.10;;;1.10;;
10052;SDS011;52418;53.134;8.236;2022-07-22T14:54:09;1.10;;;1.10;;
10052;SDS011;52418;53.134;8.236;2022-07-22T14:56:36;1.10;;;1.10;;
10052;SDS011;52418;53.134;8.236;2022-07-22T14:59:01;1.10;;;1.10;;
10052;SDS011;52418;53.134;8.236;2022-07-22T15:01:27;1.20;;;1.20;;
10052;SDS011;52418;53.134;8.236;2022-07-22T15:03:52;1.10;;;1.10;;
10052;SDS011;52418;53.134;8.236;2022-07-22T15:06:17;1.05;;;1.05;;
10052;SDS011;52418;53.134;8.236;2022-07-22T15:08:43;1.00;;;1.00;;
10052;SDS011;52418;53.134;8.236;2022-07-22T15:11:09;1.05;;;1.05;;
10052;SDS011;52418;53.134;8.236;2022-07-22T15:13:34;1.00;;;1.00;;
10052;SDS011;52418;53.134;8.236;2022-07-22T15:15:59;1.00;;;1.00;;
10052;SDS011;52418;53.134;8.236;2022-07-22T15:18:25;1.10;;;1.10;;
10052;SDS011;52418;53.134;8.236;2022-07-22T15:20:50;1.10;;;1.10;;